Time;durP1;ratioP1;P1;durP2;ratioP2;P2;SDS_P1;SDS_P2;PMS_P1;PMS_P2;Temp;Humidity;BMP_temperature;BMP_pressure;BME280_temperature;BME280_humidity;BME280_pressure;Samples;Min_cycle;Max_cycle;Signal;HPM_P1;HPM_P2
2023/02/17 00:00:10;;;;;;;0.98;0.68;;;27.80;61.90;;;;;;4086274;28;20137;-41
2023/02/17 00:02:33;;;;;;;1.55;0.50;;;27.80;61.70;;;;;;4094619;28;20050;-42
2023/02/17 00:04:55;;;;;;;1.63;0.70;;;27.80;61.60;;;;;;4101293;28;20145;-42
2023/02/17 00:07:17;;;;;;;0.95;0.60;;;27.90;61.60;;;;;;4102374;28;20039;-40
2023/02/17 00:09:40;;;;;;;1.00;0.80;;;27.90;61.50;;;;;;4096229;28;20846;-44
2023/02/17 00:12:02;;;;;;;1.90;0.80;;;28.00;61.50;;;;;;4101469;28;20047;-40
2023/02/17 00:14:25;;;;;;;1.20;0.60;;;28.00;61.50;;;;;;4098483;28;20073;-43
2023/02/17 00:16:47;;;;;;;2.05;0.50;;;28.00;61.40;;;;;;4102198;28;20050;-48
2023/02/17 00:19:23;;;;;;;1.35;0.60;;;28.10;61.40;;;;;;4097722;28;20210;-43
2023/02/17 00:21:46;;;;;;;2.35;0.70;;;28.10;61.50;;;;;;4104273;28;20407;-42
2023/02/17 00:24:09;;;;;;;1.27;0.63;;;28.10;61.40;;;;;;4099656;28;20082;-41
2023/02/17 00:26:31;;;;;;;1.27;0.85;;;28.20;61.40;;;;;;4094358;28;20110;-41
2023/02/17 00:28:54;;;;;;;1.88;0.70;;;28.20;61.20;;;;;;4099050;28;20043;-43
2023/02/17 00:31:20;;;;;;;2.80;0.82;;;28.20;61.10;;;;;;4099542;28;20038;-42
2023/02/17 00:33:42;;;;;;;1.08;0.45;;;28.30;61.30;;;;;;4098589;28;20166;-43
2023/02/17 00:36:07;;;;;;;1.85;1.00;;;28.30;61.20;;;;;;4100993;28;20042;-41
2023/02/17 00:38:30;;;;;;;1.02;0.50;;;28.30;61.10;;;;;;4099608;28;20074;-43
2023/02/17 00:40:52;;;;;;;1.20;0.60;;;28.40;61.30;;;;;;4095369;28;20138;-40
2023/02/17 00:43:15;;;;;;;1.15;0.60;;;28.40;61.20;;;;;;4087490;28;20050;-42
2023/02/17 00:45:37;;;;;;;2.40;0.70;;;28.50;61.20;;;;;;4100257;28;20177;-41
2023/02/17 00:47:59;;;;;;;1.63;0.70;;;28.50;60.70;;;;;;4102292;28;20543;-41
2023/02/17 00:50:22;;;;;;;0.77;0.60;;;28.30;58.50;;;;;;4099121;28;20479;-40
2023/02/17 00:52:44;;;;;;;1.30;0.88;;;28.10;57.40;;;;;;4099244;28;20035;-40
2023/02/17 00:55:06;;;;;;;1.10;0.70;;;28.00;56.20;;;;;;4097996;28;20138;-42
2023/02/17 00:57:31;;;;;;;1.25;0.60;;;27.80;55.70;;;;;;4097357;28;20038;-41
2023/02/17 00:59:53;;;;;;;1.58;0.63;;;27.60;55.00;;;;;;4103026;28;20051;-40
2023/02/17 01:02:16;;;;;;;0.73;0.65;;;27.50;54.70;;;;;;4100043;28;20154;-39
2023/02/17 01:04:38;;;;;;;1.15;0.75;;;27.30;54.40;;;;;;4086508;28;20050;-40
2023/02/17 01:07:00;;;;;;;1.83;1.00;;;27.20;54.40;;;;;;4099955;28;20044;-39
2023/02/17 01:09:23;;;;;;;1.50;0.90;;;27.10;54.30;;;;;;4099885;28;20420;-40
2023/02/17 01:11:45;;;;;;;1.27;0.80;;;27.00;54.50;;;;;;4099193;28;20045;-40
2023/02/17 01:14:08;;;;;;;1.25;0.70;;;26.80;54.30;;;;;;4102630;28;20463;-40
2023/02/17 01:16:34;;;;;;;1.17;0.82;;;26.70;54.10;;;;;;4100627;28;20049;-42
2023/02/17 01:18:57;;;;;;;0.73;0.73;;;26.60;54.20;;;;;;4078300;28;20053;-44
2023/02/17 01:21:24;;;;;;;1.70;1.00;;;26.50;54.10;;;;;;4100960;28;20039;-40
2023/02/17 01:23:51;;;;;;;1.35;0.93;;;26.40;54.00;;;;;;4099813;28;20054;-43
2023/02/17 01:26:20;;;;;;;1.25;0.95;;;26.30;54.40;;;;;;4100600;28;20603;-40
2023/02/17 01:28:42;;;;;;;1.25;0.82;;;26.20;54.30;;;;;;4102026;28;20109;-40
2023/02/17 01:31:09;;;;;;;1.25;0.90;;;26.10;54.90;;;;;;4102626;28;20074;-42
2023/02/17 01:33:31;;;;;;;1.00;0.80;;;26.00;54.60;;;;;;4101809;28;20038;-41
2023/02/17 01:35:54;;;;;;;1.75;1.10;;;26.00;54.80;;;;;;4102018;28;20500;-41
2023/02/17 01:38:16;;;;;;;1.20;0.80;;;25.90;54.80;;;;;;4106078;28;20054;-40
2023/02/17 01:40:47;;;;;;;1.63;1.00;;;25.80;54.50;;;;;;4105639;28;20126;-42
2023/02/17 01:43:15;;;;;;;1.65;0.95;;;25.70;55.00;;;;;;4102344;28;21034;-40
2023/02/17 01:45:46;;;;;;;1.23;0.85;;;25.70;55.20;;;;;;4107343;28;20566;-40
2023/02/17 01:48:16;;;;;;;1.65;1.00;;;25.60;55.30;;;;;;4103117;28;20485;-40
2023/02/17 01:50:46;;;;;;;2.22;0.90;;;25.50;55.10;;;;;;4103791;28;20105;-47
2023/02/17 01:53:10;;;;;;;1.55;0.90;;;25.40;55.10;;;;;;4103743;28;20509;-41
2023/02/17 01:55:33;;;;;;;;;;;25.40;55.00;;;;;;4101440;28;20713;-43
2023/02/17 01:57:58;;;;;;;1.25;0.70;;;25.30;55.80;;;;;;4103614;28;20425;-45
2023/02/17 02:00:23;;;;;;;2.15;0.88;;;25.30;55.60;;;;;;4109084;28;20066;-40
2023/02/17 02:02:48;;;;;;;1.50;1.00;;;25.20;55.60;;;;;;4105689;28;20126;-39
2023/02/17 02:05:11;;;;;;;0.75;0.70;;;25.10;55.30;;;;;;4103138;28;20114;-42
2023/02/17 02:07:38;;;;;;;1.67;1.08;;;25.10;55.30;;;;;;4104051;28;20043;-40
2023/02/17 02:10:00;;;;;;;1.30;0.77;;;25.00;55.60;;;;;;4102259;28;20049;-39
2023/02/17 02:12:24;;;;;;;1.17;0.80;;;25.00;55.40;;;;;;4104496;28;20579;-44
2023/02/17 02:14:46;;;;;;;;;;;24.90;55.40;;;;;;4102327;28;20038;-40
2023/02/17 02:17:30;;;;;;;1.98;1.10;;;24.80;55.70;;;;;;4101814;28;19914;-41
2023/02/17 02:20:29;;;;;;;1.27;0.85;;;24.80;55.80;;;;;;4104160;28;20039;-38
2023/02/17 02:23:16;;;;;;;1.27;0.90;;;24.80;55.60;;;;;;4100073;28;20062;-38
2023/02/17 02:26:18;;;;;;;2.30;0.82;;;24.70;55.90;;;;;;4097467;28;20118;-38
2023/02/17 02:29:13;;;;;;;2.05;1.02;;;24.60;55.70;;;;;;4095113;28;20746;-41
2023/02/17 02:31:52;;;;;;;1.40;1.00;;;24.60;55.90;;;;;;4102225;28;20034;-38
2023/02/17 02:34:25;;;;;;;1.15;0.75;;;24.50;55.50;;;;;;4099463;28;20050;-38
2023/02/17 02:37:20;;;;;;;0.90;0.63;;;24.50;55.70;;;;;;4098242;28;20579;-37
2023/02/17 02:39:46;;;;;;;2.83;1.08;;;24.40;55.70;;;;;;4101431;28;20035;-38
2023/02/17 02:42:14;;;;;;;1.52;1.00;;;24.40;55.90;;;;;;4097303;28;20053;-39
2023/02/17 02:44:36;;;;;;;0.75;0.70;;;24.30;55.70;;;;;;4095267;28;20909;-40
2023/02/17 02:47:46;;;;;;;1.33;1.00;;;24.30;55.90;;;;;;4096494;28;20054;-38
2023/02/17 02:50:11;;;;;;;2.05;0.98;;;24.20;55.70;;;;;;4101923;28;20042;-37
2023/02/17 02:52:48;;;;;;;1.73;1.13;;;24.20;55.90;;;;;;4104434;28;20043;-41
2023/02/17 02:55:40;;;;;;;1.25;1.02;;;24.20;55.90;;;;;;4100122;28;20130;-41
2023/02/17 02:58:44;;;;;;;1.42;1.20;;;24.10;56.20;;;;;;4094517;28;20046;-42
2023/02/17 03:01:28;;;;;;;2.40;1.52;;;24.10;56.40;;;;;;4098809;28;20050;-42
2023/02/17 03:04:03;;;;;;;2.42;1.88;;;24.00;56.50;;;;;;4103201;28;20078;-42
2023/02/17 03:07:03;;;;;;;2.42;1.65;;;24.00;56.80;;;;;;4108051;28;20069;-42
2023/02/17 03:09:27;;;;;;;2.80;1.60;;;24.00;56.70;;;;;;4076705;28;20074;-41
2023/02/17 03:11:49;;;;;;;;;;;24.00;56.70;;;;;;4101416;28;20097;-40
2023/02/17 03:14:15;;;;;;;2.25;1.17;;;24.00;56.80;;;;;;4098841;28;19915;-40
2023/02/17 03:16:39;;;;;;;2.08;1.33;;;23.90;56.70;;;;;;4092750;28;20038;-42
2023/02/17 03:19:01;;;;;;;2.05;1.25;;;23.90;56.90;;;;;;4093616;28;20057;-42
2023/02/17 03:21:28;;;;;;;1.63;1.35;;;23.90;56.90;;;;;;4097312;28;20034;-40
2023/02/17 03:23:51;;;;;;;1.27;1.00;;;23.90;56.80;;;;;;4102176;28;20121;-40
2023/02/17 03:26:13;;;;;;;2.15;1.23;;;23.90;57.10;;;;;;4094895;28;20062;-38
2023/02/17 03:28:36;;;;;;;1.10;1.00;;;23.80;57.00;;;;;;4091711;28;20090;-40
2023/02/17 03:30:58;;;;;;;1.83;1.05;;;23.80;56.80;;;;;;4094566;28;20039;-40
2023/02/17 03:33:20;;;;;;;1.48;0.80;;;23.80;56.80;;;;;;4095266;28;20085;-40
2023/02/17 03:35:43;;;;;;;1.63;1.00;;;23.70;57.00;;;;;;4095486;28;20037;-42
2023/02/17 03:38:05;;;;;;;1.67;1.10;;;23.70;57.00;;;;;;4098418;28;20038;-42
2023/02/17 03:40:28;;;;;;;1.73;1.00;;;23.60;56.90;;;;;;4100447;28;20042;-43
2023/02/17 03:42:50;;;;;;;1.15;0.77;;;23.60;56.90;;;;;;4096425;28;20207;-42
2023/02/17 03:45:13;;;;;;;1.15;0.95;;;23.60;57.10;;;;;;4096513;28;20142;-41
2023/02/17 03:47:35;;;;;;;1.50;1.05;;;23.60;57.30;;;;;;4095863;28;20046;-42
2023/02/17 03:49:57;;;;;;;2.28;1.23;;;23.60;57.20;;;;;;4100674;28;20034;-43
2023/02/17 03:52:20;;;;;;;1.08;0.90;;;23.50;57.30;;;;;;4092739;28;20046;-39
2023/02/17 03:54:42;;;;;;;1.33;1.00;;;23.50;57.60;;;;;;4102990;28;20046;-44
2023/02/17 03:57:05;;;;;;;2.05;1.17;;;23.50;57.60;;;;;;4099905;28;20043;-42
2023/02/17 03:59:29;;;;;;;2.05;1.10;;;23.50;57.60;;;;;;4098325;28;20145;-38
2023/02/17 04:01:51;;;;;;;1.77;0.98;;;23.50;57.80;;;;;;4085964;28;20066;-42
2023/02/17 04:04:13;;;;;;;1.83;1.00;;;23.50;57.70;;;;;;4093387;28;20602;-44
2023/02/17 04:06:36;;;;;;;2.00;1.38;;;23.50;57.70;;;;;;4093257;28;20047;-44
2023/02/17 04:08:58;;;;;;;2.05;1.27;;;23.50;57.50;;;;;;4095360;28;20661;-41
2023/02/17 04:11:21;;;;;;;1.83;1.10;;;23.50;57.60;;;;;;4095531;28;20052;-41
2023/02/17 04:13:43;;;;;;;1.75;1.17;;;23.40;57.40;;;;;;4098813;28;20027;-43
2023/02/17 04:16:08;;;;;;;1.80;1.20;;;23.40;57.30;;;;;;4091643;28;20109;-41
2023/02/17 04:18:31;;;;;;;1.52;1.17;;;23.40;57.50;;;;;;4089915;28;20521;-39
2023/02/17 04:20:53;;;;;;;1.60;1.23;;;23.40;57.50;;;;;;4088120;28;20045;-38
2023/02/17 04:23:17;;;;;;;1.73;1.10;;;23.40;57.50;;;;;;4092793;28;20066;-39
2023/02/17 04:25:40;;;;;;;2.03;1.10;;;23.40;57.40;;;;;;4090887;28;20031;-40
2023/02/17 04:28:04;;;;;;;2.92;1.38;;;23.40;57.30;;;;;;4090435;28;20590;-40
2023/02/17 04:30:26;;;;;;;2.08;1.10;;;23.40;57.30;;;;;;4091353;28;20618;-40
2023/02/17 04:32:48;;;;;;;1.65;0.93;;;23.40;57.20;;;;;;4086213;28;20067;-39
2023/02/17 04:35:11;;;;;;;1.48;1.23;;;23.40;57.20;;;;;;4097243;28;20109;-40
2023/02/17 04:37:33;;;;;;;1.63;1.05;;;23.40;57.20;;;;;;4095237;28;20031;-41
2023/02/17 04:39:56;;;;;;;1.30;1.10;;;23.30;57.10;;;;;;4096835;28;20036;-40
2023/02/17 04:42:18;;;;;;;4.30;1.30;;;23.40;57.20;;;;;;4094951;28;20050;-43
2023/02/17 04:44:40;;;;;;;0.93;0.80;;;23.40;57.10;;;;;;4094107;28;20054;-39
2023/02/17 04:47:03;;;;;;;1.25;0.90;;;23.40;57.40;;;;;;4095442;28;20202;-38
2023/02/17 04:49:25;;;;;;;1.75;1.10;;;23.40;57.30;;;;;;4095992;28;20034;-40
2023/02/17 04:51:48;;;;;;;1.77;1.10;;;23.40;57.30;;;;;;4094739;28;20425;-41
2023/02/17 04:54:10;;;;;;;1.65;1.20;;;23.40;57.30;;;;;;4099576;28;20070;-40
2023/02/17 04:56:32;;;;;;;1.48;1.25;;;23.40;57.30;;;;;;4101072;28;20066;-42
2023/02/17 04:58:55;;;;;;;2.50;1.80;;;23.40;57.30;;;;;;4094673;28;20061;-41
2023/02/17 05:01:17;;;;;;;2.53;1.70;;;23.50;57.30;;;;;;4100840;28;20082;-41
2023/02/17 05:03:40;;;;;;;2.33;1.70;;;23.50;57.10;;;;;;4098573;28;20039;-40
2023/02/17 05:06:05;;;;;;;2.78;1.60;;;23.50;57.00;;;;;;4104231;28;20050;-41
2023/02/17 05:08:28;;;;;;;2.30;1.75;;;23.50;56.90;;;;;;4087974;28;20054;-42
2023/02/17 05:10:51;;;;;;;3.28;1.67;;;23.50;56.70;;;;;;4101275;28;20122;-41
2023/02/17 05:13:14;;;;;;;3.58;2.08;;;23.50;56.80;;;;;;4099829;28;20567;-42
2023/02/17 05:15:36;;;;;;;3.03;1.70;;;23.60;56.90;;;;;;4107376;28;20543;-40
2023/02/17 05:17:58;;;;;;;2.70;1.60;;;23.60;56.60;;;;;;4105349;28;20035;-42
2023/02/17 05:20:21;;;;;;;3.35;1.90;;;23.60;56.60;;;;;;4102659;28;20425;-44
2023/02/17 05:22:43;;;;;;;2.90;1.38;;;23.60;56.60;;;;;;4099826;28;20153;-41
2023/02/17 05:25:07;;;;;;;2.08;1.40;;;23.60;56.50;;;;;;4103982;28;20039;-44
2023/02/17 05:27:29;;;;;;;2.15;1.33;;;23.70;56.50;;;;;;4097635;28;20551;-39
2023/02/17 05:29:51;;;;;;;2.15;1.42;;;23.70;56.30;;;;;;4100583;28;20042;-40
2023/02/17 05:32:14;;;;;;;2.50;1.55;;;23.70;56.30;;;;;;4102188;28;20077;-43
2023/02/17 05:34:36;;;;;;;4.38;1.60;;;23.80;56.10;;;;;;4104853;28;20134;-43
2023/02/17 05:36:59;;;;;;;3.67;1.83;;;23.80;56.00;;;;;;4102519;28;20543;-42
2023/02/17 05:39:21;;;;;;;3.47;1.60;;;23.80;56.30;;;;;;4100431;28;20072;-40
2023/02/17 05:41:44;;;;;;;1.92;1.23;;;23.80;56.70;;;;;;4103427;28;20050;-40
2023/02/17 05:44:06;;;;;;;2.92;1.50;;;23.80;56.00;;;;;;4101468;28;20451;-42
2023/02/17 05:46:29;;;;;;;2.70;1.20;;;23.90;55.90;;;;;;4102058;28;20073;-41
2023/02/17 05:48:51;;;;;;;2.25;1.05;;;23.90;55.80;;;;;;4104288;28;20520;-40
2023/02/17 05:51:16;;;;;;;2.45;1.13;;;23.90;55.60;;;;;;4103323;28;20058;-44
2023/02/17 05:53:39;;;;;;;1.90;1.15;;;24.00;55.50;;;;;;4101855;28;20039;-40
2023/02/17 05:56:01;;;;;;;1.97;0.90;;;24.00;55.40;;;;;;4105319;28;20058;-39
2023/02/17 05:58:23;;;;;;;3.63;0.80;;;24.00;55.40;;;;;;4100855;28;20098;-40
2023/02/17 06:00:46;;;;;;;1.63;0.82;;;24.00;55.10;;;;;;4099815;28;20080;-41
2023/02/17 06:03:09;;;;;;;1.75;0.88;;;24.00;55.20;;;;;;4097535;28;20054;-41
2023/02/17 06:05:31;;;;;;;1.45;0.73;;;23.90;55.40;;;;;;4104381;28;20043;-39
2023/02/17 06:07:54;;;;;;;1.27;0.88;;;23.80;55.50;;;;;;4098922;28;20117;-39
2023/02/17 06:10:16;;;;;;;0.90;0.60;;;23.80;55.80;;;;;;4103572;28;20045;-41
2023/02/17 06:12:39;;;;;;;0.70;0.70;;;23.70;55.80;;;;;;4101980;28;20124;-42
2023/02/17 06:15:01;;;;;;;2.15;0.60;;;23.70;55.80;;;;;;4104772;28;20532;-39
2023/02/17 06:17:24;;;;;;;1.30;0.82;;;23.60;55.90;;;;;;4094555;28;20042;-41
2023/02/17 06:19:46;;;;;;;1.40;0.90;;;23.60;55.90;;;;;;4100288;28;20039;-40
2023/02/17 06:22:08;;;;;;;1.60;0.70;;;23.60;55.90;;;;;;4098598;28;20042;-41
2023/02/17 06:24:31;;;;;;;1.05;0.70;;;23.60;55.70;;;;;;4097170;28;20043;-45
2023/02/17 06:26:53;;;;;;;1.30;0.70;;;23.60;55.80;;;;;;4100267;28;20884;-44
2023/02/17 06:29:16;;;;;;;1.08;0.68;;;23.60;55.80;;;;;;4097088;28;20902;-45
2023/02/17 06:31:38;;;;;;;0.95;0.70;;;23.60;55.70;;;;;;4097586;28;20136;-44
2023/02/17 06:34:01;;;;;;;1.35;0.70;;;23.60;55.60;;;;;;4102252;28;20050;-43
2023/02/17 06:36:23;;;;;;;0.80;0.70;;;23.60;55.80;;;;;;4097762;28;20110;-42
2023/02/17 06:38:46;;;;;;;0.80;0.50;;;23.60;55.70;;;;;;4097611;28;20938;-44
2023/02/17 06:41:08;;;;;;;1.75;0.90;;;23.50;55.50;;;;;;4098599;28;20534;-43
2023/02/17 06:43:31;;;;;;;1.50;0.70;;;23.50;55.70;;;;;;4095370;28;20089;-42
2023/02/17 06:45:53;;;;;;;1.60;0.88;;;23.50;55.60;;;;;;4100618;28;20067;-44
2023/02/17 06:48:16;;;;;;;1.67;0.73;;;23.50;55.50;;;;;;4099716;28;20064;-43
2023/02/17 06:50:39;;;;;;;2.42;1.48;;;23.50;55.50;;;;;;4094285;28;20078;-42
2023/02/17 06:53:01;;;;;;;1.30;0.60;;;23.50;55.70;;;;;;4095064;28;20431;-43
2023/02/17 06:55:23;;;;;;;1.08;0.68;;;23.50;55.70;;;;;;4094082;28;20039;-46
2023/02/17 06:57:46;;;;;;;1.75;0.70;;;23.50;55.60;;;;;;4081488;28;20114;-41
2023/02/17 07:00:09;;;;;;;1.80;0.88;;;23.40;55.60;;;;;;4100018;28;20057;-42
2023/02/17 07:02:31;;;;;;;1.33;0.60;;;23.40;55.60;;;;;;4099079;28;20058;-46
2023/02/17 07:04:54;;;;;;;1.35;0.80;;;23.40;55.60;;;;;;4098881;28;20054;-52
2023/02/17 07:07:16;;;;;;;1.02;0.50;;;23.40;55.40;;;;;;4093308;28;20043;-45
2023/02/17 07:09:39;;;;;;;1.40;0.70;;;23.30;56.10;;;;;;4097225;28;20035;-45
2023/02/17 07:12:02;;;;;;;0.70;0.70;;;23.30;55.40;;;;;;4084503;28;20039;-46
2023/02/17 07:14:25;;;;;;;1.58;0.75;;;23.30;55.50;;;;;;4101777;28;20039;-48
2023/02/17 07:16:48;;;;;;;1.33;0.90;;;23.30;55.70;;;;;;4098778;28;20047;-45
2023/02/17 07:19:10;;;;;;;1.45;0.90;;;23.20;55.70;;;;;;4090549;28;20094;-44
2023/02/17 07:21:32;;;;;;;2.00;0.90;;;23.20;56.00;;;;;;4097663;28;20592;-43
2023/02/17 07:23:55;;;;;;;0.85;0.60;;;23.20;56.40;;;;;;4089893;28;20491;-42
2023/02/17 07:26:17;;;;;;;1.15;0.65;;;23.20;56.40;;;;;;4087403;28;20437;-44
2023/02/17 07:28:41;;;;;;;1.75;0.90;;;23.20;56.70;;;;;;4088228;28;20501;-46
2023/02/17 07:31:09;;;;;;;2.08;0.73;;;23.10;56.70;;;;;;4084981;28;20043;-46
2023/02/17 07:33:31;;;;;;;1.77;0.98;;;23.20;56.80;;;;;;4088311;28;20141;-43
2023/02/17 07:35:54;;;;;;;1.48;0.70;;;23.10;56.80;;;;;;4086103;28;20047;-51
2023/02/17 07:38:16;;;;;;;1.75;0.82;;;23.00;56.60;;;;;;4090827;28;20109;-46
2023/02/17 07:40:39;;;;;;;1.83;0.70;;;23.00;56.60;;;;;;4094906;28;20034;-44
2023/02/17 07:43:01;;;;;;;2.08;0.73;;;23.00;56.60;;;;;;4095645;28;20070;-49
2023/02/17 07:45:24;;;;;;;0.95;0.60;;;22.90;56.80;;;;;;4092469;28;20041;-47
2023/02/17 07:47:46;;;;;;;0.85;0.52;;;22.90;56.80;;;;;;4096407;28;20050;-50
2023/02/17 07:50:09;;;;;;;1.42;0.60;;;22.90;56.90;;;;;;4094147;28;20062;-49
2023/02/17 07:52:31;;;;;;;0.85;0.70;;;22.80;56.80;;;;;;4096698;28;20047;-49
2023/02/17 07:54:54;;;;;;;1.30;0.55;;;22.80;57.00;;;;;;4097411;28;20038;-49
2023/02/17 07:57:19;;;;;;;1.50;0.88;;;22.80;57.00;;;;;;4098690;28;20047;-49
2023/02/17 07:59:42;;;;;;;1.63;0.80;;;22.70;56.90;;;;;;4099514;28;20078;-43
2023/02/17 08:02:04;;;;;;;2.95;0.90;;;22.70;57.10;;;;;;4101158;28;20059;-50
2023/02/17 08:04:27;;;;;;;1.73;0.85;;;22.60;57.20;;;;;;4096460;28;20791;-48
2023/02/17 08:06:50;;;;;;;3.67;1.25;;;22.60;57.30;;;;;;4098521;28;20035;-43
2023/02/17 08:15:00;;;;;;;1.30;0.80;;;22.50;57.60;;;;;;4097525;28;20054;-42
2023/02/17 08:17:23;;;;;;;2.83;1.05;;;22.50;57.60;;;;;;4092924;28;20043;-40
2023/02/17 08:19:45;;;;;;;1.63;0.70;;;22.50;57.60;;;;;;4095421;28;20047;-43
2023/02/17 08:22:08;;;;;;;1.70;0.80;;;22.40;57.70;;;;;;4094298;28;20057;-43
2023/02/17 08:24:30;;;;;;;1.10;0.68;;;22.40;57.70;;;;;;4082840;28;20107;-43
2023/02/17 08:26:54;;;;;;;1.27;0.80;;;22.30;57.70;;;;;;4096193;28;20078;-47
2023/02/17 08:29:19;;;;;;;1.75;0.88;;;22.30;57.70;;;;;;4099022;28;20134;-42
2023/02/17 08:31:41;;;;;;;2.22;0.93;;;22.30;57.90;;;;;;4096128;28;20423;-45
2023/02/17 08:34:07;;;;;;;1.95;0.93;;;22.20;57.90;;;;;;4093436;28;20114;-43
2023/02/17 08:36:29;;;;;;;1.67;0.95;;;22.20;57.90;;;;;;4092615;28;20042;-43
2023/02/17 08:38:52;;;;;;;2.75;1.00;;;22.20;57.80;;;;;;4087574;28;20038;-39
2023/02/17 08:41:18;;;;;;;2.43;0.80;;;22.10;57.80;;;;;;4091083;28;20126;-47
2023/02/17 08:43:42;;;;;;;14.60;2.35;;;22.10;57.80;;;;;;4094328;28;20153;-44
2023/02/17 08:46:08;;;;;;;1.73;1.00;;;22.10;58.00;;;;;;4094282;28;20039;-44
2023/02/17 08:48:31;;;;;;;1.50;0.75;;;22.00;57.80;;;;;;4093673;28;20449;-44
2023/02/17 08:50:53;;;;;;;0.85;0.68;;;21.90;57.90;;;;;;4097642;28;20074;-42
2023/02/17 08:53:16;;;;;;;2.10;1.05;;;21.90;57.90;;;;;;4099064;28;20042;-43
2023/02/17 08:55:38;;;;;;;1.45;1.00;;;21.90;58.10;;;;;;4090606;28;20046;-42
2023/02/17 08:58:01;;;;;;;1.55;0.85;;;21.80;58.20;;;;;;4097805;28;20544;-43
2023/02/17 09:00:23;;;;;;;1.63;0.82;;;21.80;58.80;;;;;;4096746;28;20424;-46
2023/02/17 09:02:46;;;;;;;1.90;1.10;;;21.80;58.30;;;;;;4095378;28;20386;-42
2023/02/17 09:05:08;;;;;;;2.45;1.10;;;21.70;58.30;;;;;;4096316;28;20083;-41
2023/02/17 09:07:31;;;;;;;1.02;0.80;;;21.70;58.50;;;;;;4093238;28;20049;-40
2023/02/17 09:09:53;;;;;;;1.33;0.60;;;21.60;58.50;;;;;;4092641;28;20118;-42
2023/02/17 09:12:15;;;;;;;1.05;0.80;;;21.60;58.20;;;;;;4091289;28;20047;-45
2023/02/17 09:14:38;;;;;;;1.88;0.90;;;21.60;58.30;;;;;;4091862;28;20049;-43
2023/02/17 09:17:00;;;;;;;2.85;1.50;;;21.50;58.30;;;;;;4094710;28;20045;-43
2023/02/17 09:19:23;;;;;;;5.40;1.30;;;21.50;59.10;;;;;;4094652;28;20696;-43
2023/02/17 09:21:47;;;;;;;5.37;1.70;;;21.60;60.10;;;;;;4092238;28;20126;-43
2023/02/17 09:24:09;;;;;;;3.90;1.00;;;21.80;61.20;;;;;;4098504;28;20940;-39
2023/02/17 09:26:33;;;;;;;13.43;2.10;;;22.00;61.60;;;;;;4090513;28;20129;-42
2023/02/17 09:28:56;;;;;;;2.10;1.20;;;22.20;61.90;;;;;;4092463;28;20050;-42
2023/02/17 09:31:24;;;;;;;2.65;0.82;;;22.40;62.20;;;;;;4096924;28;20042;-41
2023/02/17 09:33:48;;;;;;;4.60;1.17;;;22.60;62.20;;;;;;4088477;28;20043;-38
2023/02/17 09:36:13;;;;;;;0.93;0.80;;;22.80;61.80;;;;;;4090223;28;20117;-39
2023/02/17 09:38:36;;;;;;;1.88;1.10;;;23.00;61.80;;;;;;4095199;28;20415;-40
2023/02/17 09:41:20;;;;;;;1.88;0.93;;;23.20;61.80;;;;;;4082390;28;20159;-44
2023/02/17 09:43:43;;;;;;;2.33;1.20;;;23.30;61.60;;;;;;4090314;28;20169;-42
2023/02/17 09:46:13;;;;;;;1.60;0.87;;;23.50;61.70;;;;;;4094583;28;20285;-41
2023/02/17 09:48:37;;;;;;;1.77;0.88;;;23.70;61.60;;;;;;4096269;28;20027;-44
2023/02/17 09:51:12;;;;;;;1.45;1.02;;;23.80;61.50;;;;;;4096451;28;20480;-40
2023/02/17 09:53:48;;;;;;;1.42;0.88;;;24.00;61.50;;;;;;4100684;28;20122;-45
2023/02/17 09:56:36;;;;;;;1.85;1.00;;;24.20;61.50;;;;;;4098019;28;20825;-39
2023/02/17 09:59:05;;;;;;;2.47;0.80;;;24.30;61.40;;;;;;4099774;28;20057;-41
2023/02/17 10:01:36;;;;;;;1.40;1.00;;;24.40;61.40;;;;;;4103879;28;20101;-42
2023/02/17 10:04:07;;;;;;;1.65;1.10;;;24.50;61.40;;;;;;4096570;28;20166;-41
2023/02/17 10:06:38;;;;;;;3.58;1.25;;;24.60;62.80;;;;;;4099102;28;20039;-43
2023/02/17 10:09:13;;;;;;;4.18;1.35;;;24.70;63.40;;;;;;4084088;28;20043;-43
2023/02/17 10:11:52;;;;;;;7.28;1.38;;;24.80;63.20;;;;;;4098804;28;20123;-42
2023/02/17 10:14:26;;;;;;;4.63;1.50;;;24.90;63.20;;;;;;4096926;28;20046;-41
2023/02/17 10:16:54;;;;;;;5.07;2.20;;;25.00;63.50;;;;;;4096865;28;20046;-43
2023/02/17 10:19:29;;;;;;;3.85;1.45;;;25.00;63.60;;;;;;4099800;28;20030;-44
2023/02/17 10:22:05;;;;;;;4.93;1.60;;;25.10;63.50;;;;;;4095249;28;20112;-40
2023/02/17 10:24:27;;;;;;;5.85;1.30;;;25.20;63.20;;;;;;4100238;28;20530;-43
2023/02/17 10:27:06;;;;;;;2.92;1.30;;;25.30;63.20;;;;;;4097794;28;21406;-42
2023/02/17 10:29:53;;;;;;;6.13;1.30;;;25.40;63.20;;;;;;4102753;28;20374;-41
2023/02/17 10:32:22;;;;;;;6.68;1.65;;;25.40;63.10;;;;;;4098327;28;20034;-41
2023/02/17 10:34:56;;;;;;;5.38;1.70;;;25.50;62.90;;;;;;4101037;28;20059;-45
2023/02/17 10:37:39;;;;;;;13.35;2.33;;;25.50;62.70;;;;;;4103047;28;20039;-42
2023/02/17 10:40:09;;;;;;;9.38;1.65;;;25.60;63.20;;;;;;4101918;28;20126;-42
2023/02/17 10:42:35;;;;;;;14.38;2.22;;;25.70;62.70;;;;;;4103071;28;20049;-43
2023/02/17 10:45:12;;;;;;;13.07;2.72;;;25.70;62.60;;;;;;4098152;28;20047;-40
2023/02/17 10:47:37;;;;;;;8.85;1.45;;;25.80;62.50;;;;;;4093627;28;20035;-43
2023/02/17 10:50:03;;;;;;;6.63;1.30;;;25.80;62.40;;;;;;4094462;28;20042;-43
2023/02/17 10:52:37;;;;;;;6.88;1.42;;;25.90;62.50;;;;;;4094043;28;20035;-42
2023/02/17 10:55:19;;;;;;;11.23;2.00;;;26.00;62.50;;;;;;4095007;28;20034;-42
2023/02/17 10:57:43;;;;;;;5.55;1.48;;;26.00;62.40;;;;;;4086685;28;20043;-46
2023/02/17 11:00:14;;;;;;;5.25;1.08;;;26.10;62.40;;;;;;4096042;28;20133;-43
2023/02/17 11:02:43;;;;;;;8.70;1.35;;;26.10;62.20;;;;;;4082250;28;20138;-45
2023/02/17 11:05:06;;;;;;;5.32;1.35;;;26.20;62.20;;;;;;4093758;28;20417;-43
2023/02/17 11:07:40;;;;;;;4.50;1.17;;;26.20;62.30;;;;;;4090093;28;20051;-44
2023/02/17 11:10:24;;;;;;;2.28;1.10;;;26.20;60.80;;;;;;4096620;28;20155;-46
2023/02/17 11:12:48;;;;;;;1.48;1.05;;;26.00;58.80;;;;;;4095167;28;21418;-44
2023/02/17 11:15:20;;;;;;;1.63;1.10;;;25.60;57.40;;;;;;4098411;28;20039;-44
2023/02/17 11:17:43;;;;;;;1.65;1.05;;;25.30;56.90;;;;;;4091770;28;20511;-51
2023/02/17 11:20:25;;;;;;;2.40;1.10;;;25.00;56.40;;;;;;4101110;28;20583;-46
2023/02/17 11:23:01;;;;;;;1.30;1.08;;;24.80;56.60;;;;;;4100425;28;20130;-44
2023/02/17 11:25:27;;;;;;;2.25;0.90;;;24.60;56.30;;;;;;4098408;28;20464;-43
2023/02/17 11:27:57;;;;;;;2.17;1.15;;;24.50;56.20;;;;;;4097269;28;20126;-42
2023/02/17 11:30:20;;;;;;;3.40;1.20;;;24.30;56.00;;;;;;4100459;28;20066;-41
2023/02/17 11:32:43;;;;;;;1.20;0.98;;;24.10;56.10;;;;;;4099702;28;20154;-50
2023/02/17 11:35:21;;;;;;;2.67;1.20;;;24.00;56.00;;;;;;4104509;28;20050;-42
2023/02/17 11:37:44;;;;;;;2.55;1.25;;;24.00;57.20;;;;;;4100561;28;20038;-45
2023/02/17 11:40:31;;;;;;;5.03;1.25;;;24.10;58.00;;;;;;4100324;28;20631;-49
2023/02/17 11:43:01;;;;;;;5.53;1.45;;;24.20;58.80;;;;;;4099489;28;20609;-46
2023/02/17 11:45:33;;;;;;;8.43;1.88;;;24.40;60.00;;;;;;4099040;28;20050;-44
2023/02/17 11:48:25;;;;;;;2.58;1.10;;;24.50;60.80;;;;;;4094551;28;20047;-48
2023/02/17 11:50:58;;;;;;;3.08;1.10;;;24.60;60.80;;;;;;4087690;28;20078;-45
2023/02/17 11:53:55;;;;;;;2.80;1.20;;;24.70;61.20;;;;;;4094379;28;20602;-46
2023/02/17 11:56:29;;;;;;;3.30;1.30;;;24.90;61.20;;;;;;4098288;28;20035;-47
2023/02/17 11:58:52;;;;;;;1.48;1.10;;;24.90;61.50;;;;;;4103790;28;20594;-52
2023/02/17 12:01:56;;;;;;;1.20;0.80;;;25.00;61.60;;;;;;4099342;28;20177;-47
2023/02/17 12:04:32;;;;;;;1.65;1.17;;;25.10;61.60;;;;;;4084576;28;20129;-51
2023/02/17 12:07:13;;;;;;;1.48;0.95;;;25.20;61.80;;;;;;4100815;28;20047;-48
2023/02/17 12:09:56;;;;;;;1.80;1.00;;;25.30;61.90;;;;;;4098596;28;20598;-49
2023/02/17 12:12:52;;;;;;;1.65;0.98;;;25.40;62.10;;;;;;4099846;28;20038;-50
2023/02/17 12:15:46;;;;;;;1.45;0.95;;;25.40;62.00;;;;;;4099011;28;20494;-51
2023/02/17 12:18:42;;;;;;;2.30;0.98;;;25.50;62.00;;;;;;4081098;28;20529;-49
2023/02/17 12:21:38;;;;;;;2.03;1.08;;;25.60;62.00;;;;;;4100208;28;20044;-48
2023/02/17 12:24:13;;;;;;;2.05;0.95;;;25.60;62.10;;;;;;4094651;28;20618;-53
2023/02/17 12:26:55;;;;;;;3.13;1.05;;;25.70;62.20;;;;;;4098593;28;20082;-48
2023/02/17 12:29:21;;;;;;;1.80;1.00;;;25.70;62.20;;;;;;4094932;28;20046;-49
2023/02/17 12:31:55;;;;;;;1.50;0.85;;;25.80;62.30;;;;;;4094342;28;20587;-45
2023/02/17 12:34:35;;;;;;;;;;;25.80;62.20;;;;;;4104622;28;20050;-54
2023/02/17 12:36:59;;;;;;;2.30;0.93;;;25.80;62.20;;;;;;4101282;28;20384;-53
2023/02/17 12:39:28;;;;;;;1.63;1.00;;;25.90;62.30;;;;;;4099323;28;20425;-51
2023/02/17 12:42:05;;;;;;;2.40;0.80;;;25.90;62.40;;;;;;4096888;28;20039;-55
2023/02/17 12:44:55;;;;;;;1.90;0.98;;;25.90;62.20;;;;;;4095207;28;20074;-50
2023/02/17 12:47:32;;;;;;;1.15;0.88;;;26.00;62.30;;;;;;4099412;28;20581;-46
2023/02/17 12:50:10;;;;;;;2.42;0.80;;;26.00;62.50;;;;;;4102138;28;20137;-44
2023/02/17 12:52:39;;;;;;;2.42;0.90;;;26.10;62.80;;;;;;4101642;28;20118;-44